Terminal Aerodrome Forecast
Issued by NWS

Home | Current Version | Previous Version | Graphics & Text | Print | Product List | Glossary On
Versions: 1 2 3 4 5 6 7 8 9 10 11 12 13 14 15 16 17 18 19 20 21 22
309
FTUS43 KGRB 041325 AAA
TAFATW
TAF AMD
KATW 041325Z 0413/0512 16004KT 3SM -SN OVC015
      TEMPO 0414/0415 2SM -SN OVC010
     FM041500 17006KT 1SM -SN OVC006
      TEMPO 0418/0422 3/4SM -SN OVC004
     FM050000 20006KT 3SM -SN OVC009
     FM050300 23007KT P6SM BKN012
     FM050600 25007KT P6SM BKN026=

USA.gov is the U.S. government's official web portal to all federal, state and local government web resources and services.